<?xml version="1.0" encoding="UTF-8" standalone="no" ?>
<gpx xmlns="http://www.topografix.com/GPX/1/1" xmlns:xsi="http://www.w3.org/2001/XMLSchema-instance" xsi:schemaLocation="http://www.topografix.com/GPX/1/1 http://www.topografix.com/GPX/1/1/gpx.xsd" version="1.1" creator="VisuGPX - https://www.visugpx.com">
  <metadata>
    <name>13/18 Le Buisson / St  Julien- Molin-Molette </name>
    <desc><![CDATA[File with points/tracks from Locus Map Classic/3.60.0]]></desc>
  </metadata>
  <trk>
    <name><![CDATA[13ème  de   à  St  Julien- Molin-Molette ]]></name>
    <extensions>
      <line xmlns="http://www.topografix.com/GPX/gpx_style/0/2">
        <color>0000FF</color>
        <opacity>0.59</opacity>
        <width>4.0</width>
      </line>
    </extensions>
    <trkseg>
      <trkpt lat="45.37052" lon="4.6776">
        <ele>476.14</ele>
        <time>2022-05-04T07:14:55.000Z</time>
      </trkpt>
      <trkpt lat="45.37031" lon="4.6775">
        <ele>478.78</ele>
        <time>2022-05-04T07:17:05.000Z</time>
      </trkpt>
      <trkpt lat="45.37009" lon="4.67741">
        <ele>479.54</ele>
        <time>2022-05-04T07:17:28.109Z</time>
      </trkpt>
      <trkpt lat="45.36988" lon="4.67728">
        <ele>479.19</ele>
        <time>2022-05-04T07:17:51.905Z</time>
      </trkpt>
      <trkpt lat="45.36975" lon="4.677">
        <ele>478.2</ele>
        <time>2022-05-04T07:22:23.779Z</time>
      </trkpt>
      <trkpt lat="45.36961" lon="4.67675">
        <ele>472.64</ele>
        <time>2022-05-04T07:23:07.000Z</time>
      </trkpt>
      <trkpt lat="45.3695" lon="4.67646">
        <ele>472.19</ele>
        <time>2022-05-04T07:23:27.770Z</time>
      </trkpt>
      <trkpt lat="45.36938" lon="4.67618">
        <ele>471.34</ele>
        <time>2022-05-04T07:23:50.439Z</time>
      </trkpt>
      <trkpt lat="45.36923" lon="4.67593">
        <ele>471.34</ele>
        <time>2022-05-04T07:24:09.559Z</time>
      </trkpt>
      <trkpt lat="45.3691" lon="4.67568">
        <ele>471.34</ele>
        <time>2022-05-04T07:24:31.398Z</time>
      </trkpt>
      <trkpt lat="45.36903" lon="4.67537">
        <ele>471.33</ele>
        <time>2022-05-04T07:24:51.864Z</time>
      </trkpt>
      <trkpt lat="45.36898" lon="4.67505">
        <ele>471.63</ele>
        <time>2022-05-04T07:25:16.957Z</time>
      </trkpt>
      <trkpt lat="45.36887" lon="4.67472">
        <ele>471.63</ele>
        <time>2022-05-04T07:25:54.000Z</time>
      </trkpt>
      <trkpt lat="45.36879" lon="4.67441">
        <ele>471.63</ele>
        <time>2022-05-04T07:26:30.748Z</time>
      </trkpt>
      <trkpt lat="45.36875" lon="4.67409">
        <ele>472.47</ele>
        <time>2022-05-04T07:26:56.520Z</time>
      </trkpt>
      <trkpt lat="45.36866" lon="4.67378">
        <ele>491.91</ele>
        <time>2022-05-04T07:27:23.000Z</time>
      </trkpt>
      <trkpt lat="45.36857" lon="4.67348">
        <ele>473.74</ele>
        <time>2022-05-04T07:27:42.000Z</time>
      </trkpt>
      <trkpt lat="45.3685" lon="4.67318">
        <ele>475.38</ele>
        <time>2022-05-04T07:28:04.000Z</time>
      </trkpt>
      <trkpt lat="45.36836" lon="4.67291">
        <ele>475.25</ele>
        <time>2022-05-04T07:28:24.018Z</time>
      </trkpt>
      <trkpt lat="45.36817" lon="4.67271">
        <ele>475.16</ele>
        <time>2022-05-04T07:28:46.082Z</time>
      </trkpt>
      <trkpt lat="45.36803" lon="4.67245">
        <ele>473.86</ele>
        <time>2022-05-04T07:29:07.000Z</time>
      </trkpt>
      <trkpt lat="45.36786" lon="4.67221">
        <ele>473.74</ele>
        <time>2022-05-04T07:29:25.981Z</time>
      </trkpt>
      <trkpt lat="45.36765" lon="4.6721">
        <ele>472.76</ele>
        <time>2022-05-04T07:29:45.686Z</time>
      </trkpt>
      <trkpt lat="45.36741" lon="4.67203">
        <ele>470.94</ele>
        <time>2022-05-04T07:30:06.918Z</time>
      </trkpt>
      <trkpt lat="45.36718" lon="4.67195">
        <ele>472.87</ele>
        <time>2022-05-04T07:30:28.000Z</time>
      </trkpt>
      <trkpt lat="45.36699" lon="4.67179">
        <ele>471.81</ele>
        <time>2022-05-04T07:30:47.126Z</time>
      </trkpt>
      <trkpt lat="45.36682" lon="4.67157">
        <ele>470.4</ele>
        <time>2022-05-04T07:31:07.563Z</time>
      </trkpt>
      <trkpt lat="45.36663" lon="4.67139">
        <ele>472</ele>
        <time>2022-05-04T07:31:26.908Z</time>
      </trkpt>
      <trkpt lat="45.36641" lon="4.67129">
        <ele>470.83</ele>
        <time>2022-05-04T07:31:48.545Z</time>
      </trkpt>
      <trkpt lat="45.36618" lon="4.67131">
        <ele>469.73</ele>
        <time>2022-05-04T07:32:15.687Z</time>
      </trkpt>
      <trkpt lat="45.36595" lon="4.6713">
        <ele>470.55</ele>
        <time>2022-05-04T07:32:34.967Z</time>
      </trkpt>
      <trkpt lat="45.36573" lon="4.67134">
        <ele>469.05</ele>
        <time>2022-05-04T07:32:56.000Z</time>
      </trkpt>
      <trkpt lat="45.3655" lon="4.67138">
        <ele>471.32</ele>
        <time>2022-05-04T07:33:15.689Z</time>
      </trkpt>
      <trkpt lat="45.36527" lon="4.67142">
        <ele>471.52</ele>
        <time>2022-05-04T07:33:36.687Z</time>
      </trkpt>
      <trkpt lat="45.36503" lon="4.67138">
        <ele>470.89</ele>
        <time>2022-05-04T07:33:58.045Z</time>
      </trkpt>
      <trkpt lat="45.3648" lon="4.67131">
        <ele>473.79</ele>
        <time>2022-05-04T07:34:16.966Z</time>
      </trkpt>
      <trkpt lat="45.36457" lon="4.67129">
        <ele>477</ele>
        <time>2022-05-04T07:34:35.249Z</time>
      </trkpt>
      <trkpt lat="45.36436" lon="4.67116">
        <ele>475.39</ele>
        <time>2022-05-04T07:34:55.686Z</time>
      </trkpt>
      <trkpt lat="45.36427" lon="4.67086">
        <ele>475</ele>
        <time>2022-05-04T07:35:21.605Z</time>
      </trkpt>
      <trkpt lat="45.36411" lon="4.67062">
        <ele>477.48</ele>
        <time>2022-05-04T07:35:47.490Z</time>
      </trkpt>
      <trkpt lat="45.36393" lon="4.67042">
        <ele>478.49</ele>
        <time>2022-05-04T07:36:14.000Z</time>
      </trkpt>
      <trkpt lat="45.36374" lon="4.67025">
        <ele>479.27</ele>
        <time>2022-05-04T07:36:38.824Z</time>
      </trkpt>
      <trkpt lat="45.36355" lon="4.67007">
        <ele>480.86</ele>
        <time>2022-05-04T07:37:01.641Z</time>
      </trkpt>
      <trkpt lat="45.36338" lon="4.66985">
        <ele>484.87</ele>
        <time>2022-05-04T07:37:27.000Z</time>
      </trkpt>
      <trkpt lat="45.36324" lon="4.66959">
        <ele>485.6</ele>
        <time>2022-05-04T07:38:01.000Z</time>
      </trkpt>
      <trkpt lat="45.36312" lon="4.66932">
        <ele>487.33</ele>
        <time>2022-05-04T07:38:26.101Z</time>
      </trkpt>
      <trkpt lat="45.36294" lon="4.66911">
        <ele>487.77</ele>
        <time>2022-05-04T07:38:49.000Z</time>
      </trkpt>
      <trkpt lat="45.36277" lon="4.66889">
        <ele>490.16</ele>
        <time>2022-05-04T07:39:12.000Z</time>
      </trkpt>
      <trkpt lat="45.36262" lon="4.66865">
        <ele>493.08</ele>
        <time>2022-05-04T07:39:35.682Z</time>
      </trkpt>
      <trkpt lat="45.36247" lon="4.66841">
        <ele>489.33</ele>
        <time>2022-05-04T07:40:01.529Z</time>
      </trkpt>
      <trkpt lat="45.36226" lon="4.66827">
        <ele>484.34</ele>
        <time>2022-05-04T07:41:08.081Z</time>
      </trkpt>
      <trkpt lat="45.36207" lon="4.66845">
        <ele>481.84</ele>
        <time>2022-05-04T07:41:30.000Z</time>
      </trkpt>
      <trkpt lat="45.36188" lon="4.66864">
        <ele>481.19</ele>
        <time>2022-05-04T07:41:50.423Z</time>
      </trkpt>
      <trkpt lat="45.36171" lon="4.66887">
        <ele>482.4</ele>
        <time>2022-05-04T07:42:11.481Z</time>
      </trkpt>
      <trkpt lat="45.3615" lon="4.669">
        <ele>483.45</ele>
        <time>2022-05-04T07:42:31.822Z</time>
      </trkpt>
      <trkpt lat="45.36127" lon="4.66894">
        <ele>481.02</ele>
        <time>2022-05-04T07:45:32.537Z</time>
      </trkpt>
      <trkpt lat="45.36126" lon="4.66926">
        <ele>473.06</ele>
        <time>2022-05-04T07:46:11.048Z</time>
      </trkpt>
      <trkpt lat="45.36129" lon="4.6696">
        <ele>474.88</ele>
        <time>2022-05-04T07:46:39.564Z</time>
      </trkpt>
      <trkpt lat="45.36116" lon="4.66988">
        <ele>466.79</ele>
        <time>2022-05-04T07:47:09.591Z</time>
      </trkpt>
      <trkpt lat="45.36103" lon="4.67015">
        <ele>462.59</ele>
        <time>2022-05-04T07:47:34.962Z</time>
      </trkpt>
      <trkpt lat="45.36087" lon="4.67039">
        <ele>460.12</ele>
        <time>2022-05-04T07:47:59.941Z</time>
      </trkpt>
      <trkpt lat="45.36074" lon="4.67065">
        <ele>464.92</ele>
        <time>2022-05-04T07:48:22.591Z</time>
      </trkpt>
      <trkpt lat="45.36062" lon="4.67093">
        <ele>464.09</ele>
        <time>2022-05-04T07:48:40.000Z</time>
      </trkpt>
      <trkpt lat="45.36049" lon="4.6712">
        <ele>463.41</ele>
        <time>2022-05-04T07:49:01.884Z</time>
      </trkpt>
      <trkpt lat="45.36032" lon="4.67141">
        <ele>467.67</ele>
        <time>2022-05-04T07:49:27.679Z</time>
      </trkpt>
      <trkpt lat="45.36032" lon="4.67108">
        <ele>468.01</ele>
        <time>2022-05-04T07:50:05.048Z</time>
      </trkpt>
      <trkpt lat="45.36025" lon="4.67077">
        <ele>464.68</ele>
        <time>2022-05-04T07:50:28.900Z</time>
      </trkpt>
      <trkpt lat="45.36023" lon="4.67045">
        <ele>463.12</ele>
        <time>2022-05-04T07:50:50.564Z</time>
      </trkpt>
      <trkpt lat="45.36025" lon="4.67013">
        <ele>459.82</ele>
        <time>2022-05-04T07:51:13.000Z</time>
      </trkpt>
      <trkpt lat="45.36026" lon="4.66981">
        <ele>457.7</ele>
        <time>2022-05-04T07:51:32.848Z</time>
      </trkpt>
      <trkpt lat="45.36026" lon="4.66948">
        <ele>456.92</ele>
        <time>2022-05-04T07:51:53.563Z</time>
      </trkpt>
      <trkpt lat="45.36006" lon="4.66932">
        <ele>462.99</ele>
        <time>2022-05-04T07:52:15.000Z</time>
      </trkpt>
      <trkpt lat="45.35983" lon="4.66934">
        <ele>466.94</ele>
        <time>2022-05-04T07:52:36.479Z</time>
      </trkpt>
      <trkpt lat="45.35959" lon="4.66935">
        <ele>468.17</ele>
        <time>2022-05-04T07:53:01.122Z</time>
      </trkpt>
      <trkpt lat="45.35936" lon="4.66932">
        <ele>468.59</ele>
        <time>2022-05-04T07:53:29.709Z</time>
      </trkpt>
      <trkpt lat="45.35913" lon="4.66932">
        <ele>468.82</ele>
        <time>2022-05-04T07:53:53.599Z</time>
      </trkpt>
      <trkpt lat="45.3589" lon="4.6693">
        <ele>466.75</ele>
        <time>2022-05-04T07:54:15.747Z</time>
      </trkpt>
      <trkpt lat="45.35867" lon="4.66926">
        <ele>463.91</ele>
        <time>2022-05-04T07:54:37.728Z</time>
      </trkpt>
      <trkpt lat="45.35844" lon="4.66924">
        <ele>463.18</ele>
        <time>2022-05-04T07:54:59.000Z</time>
      </trkpt>
      <trkpt lat="45.35821" lon="4.66921">
        <ele>464.34</ele>
        <time>2022-05-04T07:55:19.483Z</time>
      </trkpt>
      <trkpt lat="45.35798" lon="4.66917">
        <ele>464.32</ele>
        <time>2022-05-04T07:55:41.000Z</time>
      </trkpt>
      <trkpt lat="45.35775" lon="4.66913">
        <ele>462.47</ele>
        <time>2022-05-04T07:56:01.106Z</time>
      </trkpt>
      <trkpt lat="45.35751" lon="4.66911">
        <ele>459.58</ele>
        <time>2022-05-04T07:56:23.458Z</time>
      </trkpt>
      <trkpt lat="45.35728" lon="4.66912">
        <ele>458.7</ele>
        <time>2022-05-04T07:56:45.589Z</time>
      </trkpt>
      <trkpt lat="45.35705" lon="4.66905">
        <ele>458.5</ele>
        <time>2022-05-04T07:57:07.684Z</time>
      </trkpt>
      <trkpt lat="45.35687" lon="4.66886">
        <ele>460.74</ele>
        <time>2022-05-04T07:58:54.522Z</time>
      </trkpt>
      <trkpt lat="45.35668" lon="4.66867">
        <ele>460.24</ele>
        <time>2022-05-04T07:59:16.131Z</time>
      </trkpt>
      <trkpt lat="45.35647" lon="4.66855">
        <ele>460.09</ele>
        <time>2022-05-04T07:59:36.420Z</time>
      </trkpt>
      <trkpt lat="45.35627" lon="4.66839">
        <ele>461.32</ele>
        <time>2022-05-04T07:59:57.884Z</time>
      </trkpt>
      <trkpt lat="45.35606" lon="4.66822">
        <ele>459.66</ele>
        <time>2022-05-04T08:00:18.645Z</time>
      </trkpt>
      <trkpt lat="45.35587" lon="4.66806">
        <ele>459.38</ele>
        <time>2022-05-04T08:00:40.000Z</time>
      </trkpt>
      <trkpt lat="45.35568" lon="4.66787">
        <ele>460.39</ele>
        <time>2022-05-04T08:01:01.000Z</time>
      </trkpt>
      <trkpt lat="45.35549" lon="4.6677">
        <ele>458.01</ele>
        <time>2022-05-04T08:01:20.626Z</time>
      </trkpt>
      <trkpt lat="45.35529" lon="4.66753">
        <ele>457.7</ele>
        <time>2022-05-04T08:01:41.060Z</time>
      </trkpt>
      <trkpt lat="45.35509" lon="4.66733">
        <ele>457.75</ele>
        <time>2022-05-04T08:02:03.130Z</time>
      </trkpt>
      <trkpt lat="45.3549" lon="4.66716">
        <ele>458.79</ele>
        <time>2022-05-04T08:02:23.767Z</time>
      </trkpt>
      <trkpt lat="45.35469" lon="4.66705">
        <ele>456.88</ele>
        <time>2022-05-04T08:02:45.000Z</time>
      </trkpt>
      <trkpt lat="45.35446" lon="4.66693">
        <ele>457.35</ele>
        <time>2022-05-04T08:03:05.559Z</time>
      </trkpt>
      <trkpt lat="45.35427" lon="4.66674">
        <ele>453.81</ele>
        <time>2022-05-04T08:03:26.650Z</time>
      </trkpt>
      <trkpt lat="45.35408" lon="4.66656">
        <ele>453.88</ele>
        <time>2022-05-04T08:03:46.940Z</time>
      </trkpt>
      <trkpt lat="45.35391" lon="4.66635">
        <ele>448.91</ele>
        <time>2022-05-04T08:04:08.000Z</time>
      </trkpt>
      <trkpt lat="45.35375" lon="4.66613">
        <ele>447.59</ele>
        <time>2022-05-04T08:04:27.467Z</time>
      </trkpt>
      <trkpt lat="45.35357" lon="4.66591">
        <ele>453.12</ele>
        <time>2022-05-04T08:05:04.023Z</time>
      </trkpt>
      <trkpt lat="45.35338" lon="4.66573">
        <ele>449.69</ele>
        <time>2022-05-04T08:05:25.000Z</time>
      </trkpt>
      <trkpt lat="45.3532" lon="4.66555">
        <ele>449.69</ele>
        <time>2022-05-04T08:05:46.000Z</time>
      </trkpt>
      <trkpt lat="45.35303" lon="4.66533">
        <ele>449.68</ele>
        <time>2022-05-04T08:07:45.000Z</time>
      </trkpt>
      <trkpt lat="45.35286" lon="4.66511">
        <ele>449.5</ele>
        <time>2022-05-04T08:08:04.706Z</time>
      </trkpt>
      <trkpt lat="45.35268" lon="4.6649">
        <ele>446.34</ele>
        <time>2022-05-04T08:08:28.000Z</time>
      </trkpt>
      <trkpt lat="45.35251" lon="4.66467">
        <ele>446.42</ele>
        <time>2022-05-04T08:08:46.642Z</time>
      </trkpt>
      <trkpt lat="45.35255" lon="4.66435">
        <ele>452.21</ele>
        <time>2022-05-04T08:09:21.000Z</time>
      </trkpt>
      <trkpt lat="45.35266" lon="4.66407">
        <ele>449.38</ele>
        <time>2022-05-04T08:10:09.624Z</time>
      </trkpt>
      <trkpt lat="45.35264" lon="4.66375">
        <ele>453.65</ele>
        <time>2022-05-04T08:10:34.000Z</time>
      </trkpt>
      <trkpt lat="45.35261" lon="4.66343">
        <ele>458.91</ele>
        <time>2022-05-04T08:11:00.064Z</time>
      </trkpt>
      <trkpt lat="45.35255" lon="4.66312">
        <ele>455.8</ele>
        <time>2022-05-04T08:11:26.651Z</time>
      </trkpt>
      <trkpt lat="45.35249" lon="4.6628">
        <ele>456.08</ele>
        <time>2022-05-04T08:11:53.946Z</time>
      </trkpt>
      <trkpt lat="45.35239" lon="4.66251">
        <ele>454.86</ele>
        <time>2022-05-04T08:12:18.946Z</time>
      </trkpt>
      <trkpt lat="45.35226" lon="4.66224">
        <ele>455.83</ele>
        <time>2022-05-04T08:12:46.124Z</time>
      </trkpt>
      <trkpt lat="45.35213" lon="4.66197">
        <ele>460.4</ele>
        <time>2022-05-04T08:13:07.742Z</time>
      </trkpt>
      <trkpt lat="45.35201" lon="4.66169">
        <ele>466.2</ele>
        <time>2022-05-04T08:13:31.782Z</time>
      </trkpt>
      <trkpt lat="45.35188" lon="4.66142">
        <ele>461.89</ele>
        <time>2022-05-04T08:13:52.743Z</time>
      </trkpt>
      <trkpt lat="45.35173" lon="4.66118">
        <ele>472.5</ele>
        <time>2022-05-04T08:14:23.805Z</time>
      </trkpt>
      <trkpt lat="45.35172" lon="4.66085">
        <ele>471.78</ele>
        <time>2022-05-04T08:14:52.706Z</time>
      </trkpt>
      <trkpt lat="45.35168" lon="4.66053">
        <ele>474.1</ele>
        <time>2022-05-04T08:15:09.000Z</time>
      </trkpt>
      <trkpt lat="45.35162" lon="4.66023">
        <ele>472.1</ele>
        <time>2022-05-04T08:15:43.000Z</time>
      </trkpt>
      <trkpt lat="45.3515" lon="4.65993">
        <ele>475.81</ele>
        <time>2022-05-04T08:15:58.864Z</time>
      </trkpt>
      <trkpt lat="45.35143" lon="4.65963">
        <ele>479.73</ele>
        <time>2022-05-04T08:16:42.000Z</time>
      </trkpt>
      <trkpt lat="45.35133" lon="4.65934">
        <ele>481.54</ele>
        <time>2022-05-04T08:17:08.000Z</time>
      </trkpt>
      <trkpt lat="45.35129" lon="4.65902">
        <ele>478.48</ele>
        <time>2022-05-04T08:17:55.829Z</time>
      </trkpt>
      <trkpt lat="45.35115" lon="4.65877">
        <ele>479.08</ele>
        <time>2022-05-04T08:18:25.000Z</time>
      </trkpt>
      <trkpt lat="45.35114" lon="4.65844">
        <ele>472.91</ele>
        <time>2022-05-04T08:18:57.429Z</time>
      </trkpt>
      <trkpt lat="45.3511" lon="4.65813">
        <ele>467.84</ele>
        <time>2022-05-04T08:19:31.631Z</time>
      </trkpt>
      <trkpt lat="45.35101" lon="4.65782">
        <ele>464.41</ele>
        <time>2022-05-04T08:20:04.930Z</time>
      </trkpt>
      <trkpt lat="45.35093" lon="4.65752">
        <ele>464.12</ele>
        <time>2022-05-04T08:20:32.686Z</time>
      </trkpt>
      <trkpt lat="45.35081" lon="4.65724">
        <ele>463.97</ele>
        <time>2022-05-04T08:21:01.680Z</time>
      </trkpt>
      <trkpt lat="45.3506" lon="4.65713">
        <ele>470.88</ele>
        <time>2022-05-04T08:21:24.000Z</time>
      </trkpt>
      <trkpt lat="45.35037" lon="4.65715">
        <ele>478.76</ele>
        <time>2022-05-04T08:21:46.429Z</time>
      </trkpt>
      <trkpt lat="45.35017" lon="4.65699">
        <ele>470.61</ele>
        <time>2022-05-04T08:22:17.845Z</time>
      </trkpt>
      <trkpt lat="45.35001" lon="4.65675">
        <ele>473.36</ele>
        <time>2022-05-04T08:22:46.589Z</time>
      </trkpt>
      <trkpt lat="45.3499" lon="4.65647">
        <ele>475.77</ele>
        <time>2022-05-04T08:23:11.000Z</time>
      </trkpt>
      <trkpt lat="45.34974" lon="4.65625">
        <ele>475.56</ele>
        <time>2022-05-04T08:25:27.724Z</time>
      </trkpt>
      <trkpt lat="45.34959" lon="4.656">
        <ele>477.51</ele>
        <time>2022-05-04T08:25:51.124Z</time>
      </trkpt>
      <trkpt lat="45.34946" lon="4.65572">
        <ele>474.25</ele>
        <time>2022-05-04T08:26:14.664Z</time>
      </trkpt>
      <trkpt lat="45.34939" lon="4.65541">
        <ele>476.46</ele>
        <time>2022-05-04T08:26:38.686Z</time>
      </trkpt>
      <trkpt lat="45.34949" lon="4.65511">
        <ele>479.09</ele>
        <time>2022-05-04T08:27:04.772Z</time>
      </trkpt>
      <trkpt lat="45.34934" lon="4.65486">
        <ele>478.77</ele>
        <time>2022-05-04T08:27:35.724Z</time>
      </trkpt>
      <trkpt lat="45.34911" lon="4.65487">
        <ele>478.06</ele>
        <time>2022-05-04T08:27:58.000Z</time>
      </trkpt>
      <trkpt lat="45.34891" lon="4.65473">
        <ele>479.06</ele>
        <time>2022-05-04T08:28:19.000Z</time>
      </trkpt>
      <trkpt lat="45.34875" lon="4.65449">
        <ele>480.97</ele>
        <time>2022-05-04T08:28:42.000Z</time>
      </trkpt>
      <trkpt lat="45.3486" lon="4.65424">
        <ele>481.75</ele>
        <time>2022-05-04T08:29:03.442Z</time>
      </trkpt>
      <trkpt lat="45.34849" lon="4.65396">
        <ele>482.12</ele>
        <time>2022-05-04T08:29:23.630Z</time>
      </trkpt>
      <trkpt lat="45.34837" lon="4.65368">
        <ele>482.17</ele>
        <time>2022-05-04T08:29:44.841Z</time>
      </trkpt>
      <trkpt lat="45.34824" lon="4.65342">
        <ele>481.46</ele>
        <time>2022-05-04T08:30:08.000Z</time>
      </trkpt>
      <trkpt lat="45.34808" lon="4.65319">
        <ele>480.78</ele>
        <time>2022-05-04T08:30:28.904Z</time>
      </trkpt>
      <trkpt lat="45.34791" lon="4.65299">
        <ele>478.5</ele>
        <time>2022-05-04T08:30:50.787Z</time>
      </trkpt>
      <trkpt lat="45.3477" lon="4.65285">
        <ele>479.81</ele>
        <time>2022-05-04T08:31:12.723Z</time>
      </trkpt>
      <trkpt lat="45.34755" lon="4.65259">
        <ele>482.42</ele>
        <time>2022-05-04T08:31:47.358Z</time>
      </trkpt>
      <trkpt lat="45.34741" lon="4.65232">
        <ele>479.52</ele>
        <time>2022-05-04T08:32:11.526Z</time>
      </trkpt>
      <trkpt lat="45.34733" lon="4.65201">
        <ele>476.83</ele>
        <time>2022-05-04T08:32:37.090Z</time>
      </trkpt>
      <trkpt lat="45.3472" lon="4.65174">
        <ele>478.31</ele>
        <time>2022-05-04T08:33:00.385Z</time>
      </trkpt>
      <trkpt lat="45.34701" lon="4.65156">
        <ele>482.04</ele>
        <time>2022-05-04T08:33:52.588Z</time>
      </trkpt>
      <trkpt lat="45.34686" lon="4.65131">
        <ele>480.6</ele>
        <time>2022-05-04T08:34:15.622Z</time>
      </trkpt>
      <trkpt lat="45.34672" lon="4.65105">
        <ele>477.97</ele>
        <time>2022-05-04T08:34:38.586Z</time>
      </trkpt>
      <trkpt lat="45.34656" lon="4.65081">
        <ele>475.91</ele>
        <time>2022-05-04T08:35:00.566Z</time>
      </trkpt>
      <trkpt lat="45.34644" lon="4.65054">
        <ele>472.14</ele>
        <time>2022-05-04T08:35:21.688Z</time>
      </trkpt>
      <trkpt lat="45.34642" lon="4.65022">
        <ele>473.92</ele>
        <time>2022-05-04T08:35:41.365Z</time>
      </trkpt>
      <trkpt lat="45.34642" lon="4.64989">
        <ele>475.26</ele>
        <time>2022-05-04T08:36:01.685Z</time>
      </trkpt>
      <trkpt lat="45.34647" lon="4.64957">
        <ele>475.04</ele>
        <time>2022-05-04T08:36:23.464Z</time>
      </trkpt>
      <trkpt lat="45.34655" lon="4.64926">
        <ele>475.17</ele>
        <time>2022-05-04T08:36:47.030Z</time>
      </trkpt>
      <trkpt lat="45.34661" lon="4.64895">
        <ele>475.8</ele>
        <time>2022-05-04T08:37:12.769Z</time>
      </trkpt>
      <trkpt lat="45.34656" lon="4.64864">
        <ele>473.12</ele>
        <time>2022-05-04T08:37:31.484Z</time>
      </trkpt>
      <trkpt lat="45.34661" lon="4.64832">
        <ele>478.08</ele>
        <time>2022-05-04T08:38:02.010Z</time>
      </trkpt>
      <trkpt lat="45.3466" lon="4.64798">
        <ele>480.96</ele>
        <time>2022-05-04T08:38:38.000Z</time>
      </trkpt>
      <trkpt lat="45.34647" lon="4.64771">
        <ele>487.67</ele>
        <time>2022-05-04T08:39:16.064Z</time>
      </trkpt>
      <trkpt lat="45.34629" lon="4.6475">
        <ele>487.8</ele>
        <time>2022-05-04T08:39:51.670Z</time>
      </trkpt>
      <trkpt lat="45.34607" lon="4.64738">
        <ele>489.65</ele>
        <time>2022-05-04T08:40:18.669Z</time>
      </trkpt>
      <trkpt lat="45.34583" lon="4.64737">
        <ele>488.54</ele>
        <time>2022-05-04T08:40:41.610Z</time>
      </trkpt>
      <trkpt lat="45.34561" lon="4.64736">
        <ele>490.15</ele>
        <time>2022-05-04T08:41:05.627Z</time>
      </trkpt>
      <trkpt lat="45.3454" lon="4.64721">
        <ele>491.44</ele>
        <time>2022-05-04T08:41:33.000Z</time>
      </trkpt>
      <trkpt lat="45.34523" lon="4.64697">
        <ele>490.66</ele>
        <time>2022-05-04T08:42:04.000Z</time>
      </trkpt>
      <trkpt lat="45.34514" lon="4.64668">
        <ele>491.9</ele>
        <time>2022-05-04T08:42:29.649Z</time>
      </trkpt>
      <trkpt lat="45.34504" lon="4.64639">
        <ele>496.86</ele>
        <time>2022-05-04T08:42:55.000Z</time>
      </trkpt>
      <trkpt lat="45.34499" lon="4.64608">
        <ele>503.02</ele>
        <time>2022-05-04T08:43:23.825Z</time>
      </trkpt>
      <trkpt lat="45.34485" lon="4.64581">
        <ele>515.65</ele>
        <time>2022-05-04T08:43:46.546Z</time>
      </trkpt>
      <trkpt lat="45.34481" lon="4.64549">
        <ele>514.17</ele>
        <time>2022-05-04T08:44:12.546Z</time>
      </trkpt>
      <trkpt lat="45.34472" lon="4.64519">
        <ele>508.52</ele>
        <time>2022-05-04T08:44:48.603Z</time>
      </trkpt>
      <trkpt lat="45.34464" lon="4.64489">
        <ele>507.73</ele>
        <time>2022-05-04T08:45:14.669Z</time>
      </trkpt>
      <trkpt lat="45.34458" lon="4.64457">
        <ele>503.48</ele>
        <time>2022-05-04T08:45:39.590Z</time>
      </trkpt>
      <trkpt lat="45.34463" lon="4.64425">
        <ele>504.62</ele>
        <time>2022-05-04T08:46:07.000Z</time>
      </trkpt>
      <trkpt lat="45.34471" lon="4.64394">
        <ele>506.3</ele>
        <time>2022-05-04T08:46:30.681Z</time>
      </trkpt>
      <trkpt lat="45.34478" lon="4.64363">
        <ele>510.81</ele>
        <time>2022-05-04T08:46:54.772Z</time>
      </trkpt>
      <trkpt lat="45.34496" lon="4.64342">
        <ele>514.25</ele>
        <time>2022-05-04T08:47:23.000Z</time>
      </trkpt>
      <trkpt lat="45.34504" lon="4.64311">
        <ele>516.74</ele>
        <time>2022-05-04T08:47:53.000Z</time>
      </trkpt>
      <trkpt lat="45.34498" lon="4.64279">
        <ele>518.71</ele>
        <time>2022-05-04T08:48:22.745Z</time>
      </trkpt>
      <trkpt lat="45.34487" lon="4.6425">
        <ele>523.45</ele>
        <time>2022-05-04T08:48:49.025Z</time>
      </trkpt>
      <trkpt lat="45.34477" lon="4.6422">
        <ele>523.84</ele>
        <time>2022-05-04T08:49:20.805Z</time>
      </trkpt>
      <trkpt lat="45.34463" lon="4.64193">
        <ele>518.79</ele>
        <time>2022-05-04T08:49:47.653Z</time>
      </trkpt>
      <trkpt lat="45.34454" lon="4.64162">
        <ele>527.73</ele>
        <time>2022-05-04T08:52:22.645Z</time>
      </trkpt>
      <trkpt lat="45.3445" lon="4.64129">
        <ele>527.03</ele>
        <time>2022-05-04T08:52:48.289Z</time>
      </trkpt>
      <trkpt lat="45.34456" lon="4.64098">
        <ele>523.91</ele>
        <time>2022-05-04T08:53:21.000Z</time>
      </trkpt>
      <trkpt lat="45.34464" lon="4.64067">
        <ele>526.75</ele>
        <time>2022-05-04T08:53:55.765Z</time>
      </trkpt>
      <trkpt lat="45.34461" lon="4.64035">
        <ele>528.45</ele>
        <time>2022-05-04T08:54:33.000Z</time>
      </trkpt>
      <trkpt lat="45.34457" lon="4.64004">
        <ele>528.74</ele>
        <time>2022-05-04T08:55:03.828Z</time>
      </trkpt>
      <trkpt lat="45.34456" lon="4.63972">
        <ele>534.16</ele>
        <time>2022-05-04T08:55:34.000Z</time>
      </trkpt>
      <trkpt lat="45.3445" lon="4.63938">
        <ele>527.94</ele>
        <time>2022-05-04T08:56:14.028Z</time>
      </trkpt>
      <trkpt lat="45.3444" lon="4.6391">
        <ele>514.4</ele>
        <time>2022-05-04T08:56:55.807Z</time>
      </trkpt>
      <trkpt lat="45.34444" lon="4.63877">
        <ele>506.26</ele>
        <time>2022-05-04T08:57:43.000Z</time>
      </trkpt>
      <trkpt lat="45.34433" lon="4.63848">
        <ele>530.37</ele>
        <time>2022-05-04T08:58:12.091Z</time>
      </trkpt>
      <trkpt lat="45.34414" lon="4.63827">
        <ele>519.42</ele>
        <time>2022-05-04T09:00:08.000Z</time>
      </trkpt>
      <trkpt lat="45.34394" lon="4.6381">
        <ele>514.49</ele>
        <time>2022-05-04T09:00:41.000Z</time>
      </trkpt>
      <trkpt lat="45.34371" lon="4.63814">
        <ele>509.17</ele>
        <time>2022-05-04T09:01:06.000Z</time>
      </trkpt>
      <trkpt lat="45.34352" lon="4.63798">
        <ele>533.98</ele>
        <time>2022-05-04T09:01:36.000Z</time>
      </trkpt>
      <trkpt lat="45.34343" lon="4.63768">
        <ele>542.24</ele>
        <time>2022-05-04T09:01:56.000Z</time>
      </trkpt>
      <trkpt lat="45.3434" lon="4.63737">
        <ele>552.56</ele>
        <time>2022-05-04T09:02:19.000Z</time>
      </trkpt>
      <trkpt lat="45.34341" lon="4.63704">
        <ele>563.93</ele>
        <time>2022-05-04T09:03:02.587Z</time>
      </trkpt>
      <trkpt lat="45.34343" lon="4.63672">
        <ele>575.93</ele>
        <time>2022-05-04T09:03:28.051Z</time>
      </trkpt>
      <trkpt lat="45.34345" lon="4.63638">
        <ele>582.87</ele>
        <time>2022-05-04T09:03:57.000Z</time>
      </trkpt>
      <trkpt lat="45.34345" lon="4.63606">
        <ele>593.28</ele>
        <time>2022-05-04T09:04:37.040Z</time>
      </trkpt>
      <trkpt lat="45.34341" lon="4.63575">
        <ele>591.95</ele>
        <time>2022-05-04T09:05:15.000Z</time>
      </trkpt>
      <trkpt lat="45.34339" lon="4.63542">
        <ele>595.26</ele>
        <time>2022-05-04T09:06:18.000Z</time>
      </trkpt>
      <trkpt lat="45.34316" lon="4.63544">
        <ele>603.34</ele>
        <time>2022-05-04T09:06:52.000Z</time>
      </trkpt>
      <trkpt lat="45.34293" lon="4.63547">
        <ele>606.32</ele>
        <time>2022-05-04T09:08:46.000Z</time>
      </trkpt>
      <trkpt lat="45.34276" lon="4.63524">
        <ele>614.63</ele>
        <time>2022-05-04T09:09:14.000Z</time>
      </trkpt>
      <trkpt lat="45.34263" lon="4.63492">
        <ele>620.78</ele>
        <time>2022-05-04T09:10:41.763Z</time>
      </trkpt>
      <trkpt lat="45.34241" lon="4.63499">
        <ele>619.94</ele>
        <time>2022-05-04T09:11:08.000Z</time>
      </trkpt>
      <trkpt lat="45.34221" lon="4.63482">
        <ele>624.38</ele>
        <time>2022-05-04T09:11:37.462Z</time>
      </trkpt>
      <trkpt lat="45.34207" lon="4.63456">
        <ele>626.86</ele>
        <time>2022-05-04T09:12:15.000Z</time>
      </trkpt>
      <trkpt lat="45.34195" lon="4.63429">
        <ele>634.55</ele>
        <time>2022-05-04T09:13:01.000Z</time>
      </trkpt>
      <trkpt lat="45.34174" lon="4.63418">
        <ele>639.51</ele>
        <time>2022-05-04T09:13:41.000Z</time>
      </trkpt>
      <trkpt lat="45.34152" lon="4.6341">
        <ele>644.77</ele>
        <time>2022-05-04T09:14:15.000Z</time>
      </trkpt>
      <trkpt lat="45.34129" lon="4.63406">
        <ele>648.14</ele>
        <time>2022-05-04T09:14:44.940Z</time>
      </trkpt>
      <trkpt lat="45.34117" lon="4.63379">
        <ele>650.8</ele>
        <time>2022-05-04T09:15:24.000Z</time>
      </trkpt>
      <trkpt lat="45.34103" lon="4.63353">
        <ele>654.69</ele>
        <time>2022-05-04T09:16:17.000Z</time>
      </trkpt>
      <trkpt lat="45.34087" lon="4.63329">
        <ele>661.9</ele>
        <time>2022-05-04T09:17:10.961Z</time>
      </trkpt>
      <trkpt lat="45.34086" lon="4.63297">
        <ele>669.16</ele>
        <time>2022-05-04T09:18:37.000Z</time>
      </trkpt>
      <trkpt lat="45.3408" lon="4.63266">
        <ele>675.62</ele>
        <time>2022-05-04T09:19:23.000Z</time>
      </trkpt>
      <trkpt lat="45.34069" lon="4.63238">
        <ele>676.3</ele>
        <time>2022-05-04T09:20:42.921Z</time>
      </trkpt>
      <trkpt lat="45.34057" lon="4.6321">
        <ele>677.45</ele>
        <time>2022-05-04T09:21:26.820Z</time>
      </trkpt>
      <trkpt lat="45.34044" lon="4.63182">
        <ele>681.55</ele>
        <time>2022-05-04T09:21:57.622Z</time>
      </trkpt>
      <trkpt lat="45.34033" lon="4.63153">
        <ele>683.97</ele>
        <time>2022-05-04T09:24:55.000Z</time>
      </trkpt>
      <trkpt lat="45.34024" lon="4.63123">
        <ele>688.43</ele>
        <time>2022-05-04T09:25:24.024Z</time>
      </trkpt>
      <trkpt lat="45.34021" lon="4.6309">
        <ele>688.28</ele>
        <time>2022-05-04T09:25:57.999Z</time>
      </trkpt>
      <trkpt lat="45.34015" lon="4.63059">
        <ele>692.04</ele>
        <time>2022-05-04T09:26:36.864Z</time>
      </trkpt>
      <trkpt lat="45.33992" lon="4.63058">
        <ele>692.27</ele>
        <time>2022-05-04T09:27:26.721Z</time>
      </trkpt>
      <trkpt lat="45.33969" lon="4.63066">
        <ele>691.8</ele>
        <time>2022-05-04T09:30:58.619Z</time>
      </trkpt>
      <trkpt lat="45.33947" lon="4.63068">
        <ele>690.8</ele>
        <time>2022-05-04T09:31:20.842Z</time>
      </trkpt>
      <trkpt lat="45.33925" lon="4.63079">
        <ele>687.27</ele>
        <time>2022-05-04T09:31:58.000Z</time>
      </trkpt>
      <trkpt lat="45.33902" lon="4.63085">
        <ele>685.52</ele>
        <time>2022-05-04T09:32:23.625Z</time>
      </trkpt>
      <trkpt lat="45.33882" lon="4.6307">
        <ele>683.67</ele>
        <time>2022-05-04T09:32:49.605Z</time>
      </trkpt>
      <trkpt lat="45.3386" lon="4.63062">
        <ele>683.99</ele>
        <time>2022-05-04T09:33:10.245Z</time>
      </trkpt>
      <trkpt lat="45.33835" lon="4.6306">
        <ele>683.73</ele>
        <time>2022-05-04T09:33:32.583Z</time>
      </trkpt>
      <trkpt lat="45.33813" lon="4.63068">
        <ele>684.26</ele>
        <time>2022-05-04T09:33:53.000Z</time>
      </trkpt>
      <trkpt lat="45.33792" lon="4.63082">
        <ele>684.31</ele>
        <time>2022-05-04T09:34:13.000Z</time>
      </trkpt>
      <trkpt lat="45.33781" lon="4.63111">
        <ele>685.96</ele>
        <time>2022-05-04T09:34:37.000Z</time>
      </trkpt>
      <trkpt lat="45.33776" lon="4.63144">
        <ele>686.88</ele>
        <time>2022-05-04T09:35:03.621Z</time>
      </trkpt>
      <trkpt lat="45.33772" lon="4.63177">
        <ele>687.01</ele>
        <time>2022-05-04T09:35:28.000Z</time>
      </trkpt>
      <trkpt lat="45.33764" lon="4.63209">
        <ele>687.61</ele>
        <time>2022-05-04T09:35:49.626Z</time>
      </trkpt>
      <trkpt lat="45.33757" lon="4.63241">
        <ele>687.94</ele>
        <time>2022-05-04T09:36:10.342Z</time>
      </trkpt>
      <trkpt lat="45.33743" lon="4.63266">
        <ele>690.53</ele>
        <time>2022-05-04T09:36:31.018Z</time>
      </trkpt>
      <trkpt lat="45.33721" lon="4.63258">
        <ele>688.91</ele>
        <time>2022-05-04T09:36:54.587Z</time>
      </trkpt>
      <trkpt lat="45.33698" lon="4.63248">
        <ele>686.75</ele>
        <time>2022-05-04T09:37:20.846Z</time>
      </trkpt>
      <trkpt lat="45.33675" lon="4.63251">
        <ele>683.83</ele>
        <time>2022-05-04T09:37:43.339Z</time>
      </trkpt>
      <trkpt lat="45.33655" lon="4.63271">
        <ele>682.74</ele>
        <time>2022-05-04T09:38:05.880Z</time>
      </trkpt>
      <trkpt lat="45.33634" lon="4.63282">
        <ele>679.09</ele>
        <time>2022-05-04T09:38:30.000Z</time>
      </trkpt>
      <trkpt lat="45.33611" lon="4.6329">
        <ele>677.43</ele>
        <time>2022-05-04T09:38:52.000Z</time>
      </trkpt>
      <trkpt lat="45.33607" lon="4.63257">
        <ele>676.46</ele>
        <time>2022-05-04T09:40:01.000Z</time>
      </trkpt>
      <trkpt lat="45.33606" lon="4.63225">
        <ele>674.42</ele>
        <time>2022-05-04T09:40:21.123Z</time>
      </trkpt>
      <trkpt lat="45.33607" lon="4.63191">
        <ele>673.08</ele>
        <time>2022-05-04T09:40:43.904Z</time>
      </trkpt>
      <trkpt lat="45.33609" lon="4.63159">
        <ele>670.38</ele>
        <time>2022-05-04T09:41:04.887Z</time>
      </trkpt>
      <trkpt lat="45.33609" lon="4.63125">
        <ele>671.78</ele>
        <time>2022-05-04T09:41:26.678Z</time>
      </trkpt>
      <trkpt lat="45.33608" lon="4.63093">
        <ele>669.55</ele>
        <time>2022-05-04T09:41:47.046Z</time>
      </trkpt>
      <trkpt lat="45.3363" lon="4.63101">
        <ele>669.32</ele>
        <time>2022-05-04T09:42:20.001Z</time>
      </trkpt>
      <trkpt lat="45.3365" lon="4.63087">
        <ele>664</ele>
        <time>2022-05-04T09:42:42.839Z</time>
      </trkpt>
      <trkpt lat="45.33668" lon="4.63067">
        <ele>659.43</ele>
        <time>2022-05-04T09:43:03.841Z</time>
      </trkpt>
      <trkpt lat="45.33685" lon="4.63046">
        <ele>658.23</ele>
        <time>2022-05-04T09:43:24.644Z</time>
      </trkpt>
      <trkpt lat="45.33706" lon="4.63029">
        <ele>657.55</ele>
        <time>2022-05-04T09:43:48.000Z</time>
      </trkpt>
      <trkpt lat="45.33726" lon="4.63012">
        <ele>658.15</ele>
        <time>2022-05-04T09:44:35.826Z</time>
      </trkpt>
      <trkpt lat="45.33749" lon="4.63006">
        <ele>649.05</ele>
        <time>2022-05-04T09:45:02.662Z</time>
      </trkpt>
      <trkpt lat="45.33771" lon="4.63007">
        <ele>632.85</ele>
        <time>2022-05-04T09:45:29.284Z</time>
      </trkpt>
      <trkpt lat="45.33791" lon="4.62988">
        <ele>635.3</ele>
        <time>2022-05-04T09:45:52.938Z</time>
      </trkpt>
      <trkpt lat="45.33807" lon="4.62961">
        <ele>639.12</ele>
        <time>2022-05-04T09:46:12.279Z</time>
      </trkpt>
      <trkpt lat="45.33826" lon="4.62942">
        <ele>639.78</ele>
        <time>2022-05-04T09:46:36.000Z</time>
      </trkpt>
      <trkpt lat="45.33849" lon="4.6293">
        <ele>641.03</ele>
        <time>2022-05-04T09:47:02.681Z</time>
      </trkpt>
      <trkpt lat="45.33871" lon="4.62923">
        <ele>642.5</ele>
        <time>2022-05-04T09:47:27.766Z</time>
      </trkpt>
      <trkpt lat="45.33892" lon="4.62913">
        <ele>641.27</ele>
        <time>2022-05-04T09:47:51.000Z</time>
      </trkpt>
      <trkpt lat="45.33882" lon="4.62884">
        <ele>650.53</ele>
        <time>2022-05-04T09:48:30.763Z</time>
      </trkpt>
      <trkpt lat="45.33864" lon="4.62864">
        <ele>644.72</ele>
        <time>2022-05-04T09:49:02.719Z</time>
      </trkpt>
      <trkpt lat="45.33841" lon="4.6286">
        <ele>655.02</ele>
        <time>2022-05-04T09:49:20.724Z</time>
      </trkpt>
      <trkpt lat="45.33818" lon="4.6286">
        <ele>657.52</ele>
        <time>2022-05-04T09:49:42.802Z</time>
      </trkpt>
      <trkpt lat="45.33796" lon="4.6285">
        <ele>659.96</ele>
        <time>2022-05-04T09:50:06.561Z</time>
      </trkpt>
      <trkpt lat="45.33774" lon="4.62841">
        <ele>661.07</ele>
        <time>2022-05-04T09:50:30.187Z</time>
      </trkpt>
      <trkpt lat="45.33752" lon="4.62852">
        <ele>661.3</ele>
        <time>2022-05-04T09:50:54.618Z</time>
      </trkpt>
      <trkpt lat="45.33729" lon="4.62853">
        <ele>656.56</ele>
        <time>2022-05-04T09:51:30.561Z</time>
      </trkpt>
      <trkpt lat="45.33706" lon="4.62853">
        <ele>653.15</ele>
        <time>2022-05-04T10:03:59.000Z</time>
      </trkpt>
      <trkpt lat="45.33691" lon="4.62876">
        <ele>650.42</ele>
        <time>2022-05-04T10:04:43.579Z</time>
      </trkpt>
      <trkpt lat="45.33673" lon="4.62853">
        <ele>643.11</ele>
        <time>2022-05-04T10:06:13.544Z</time>
      </trkpt>
      <trkpt lat="45.33662" lon="4.62825">
        <ele>634.74</ele>
        <time>2022-05-04T10:07:00.747Z</time>
      </trkpt>
      <trkpt lat="45.33654" lon="4.62795">
        <ele>631.54</ele>
        <time>2022-05-04T10:07:31.106Z</time>
      </trkpt>
      <trkpt lat="45.3367" lon="4.62772">
        <ele>626.61</ele>
        <time>2022-05-04T10:07:52.406Z</time>
      </trkpt>
      <trkpt lat="45.33681" lon="4.62743">
        <ele>625.15</ele>
        <time>2022-05-04T10:08:16.646Z</time>
      </trkpt>
      <trkpt lat="45.33685" lon="4.62712">
        <ele>622.9</ele>
        <time>2022-05-04T10:08:43.000Z</time>
      </trkpt>
      <trkpt lat="45.33663" lon="4.62712">
        <ele>619.56</ele>
        <time>2022-05-04T10:09:09.623Z</time>
      </trkpt>
      <trkpt lat="45.3364" lon="4.62712">
        <ele>619.77</ele>
        <time>2022-05-04T10:09:44.401Z</time>
      </trkpt>
      <trkpt lat="45.33618" lon="4.627">
        <ele>623.36</ele>
        <time>2022-05-04T10:10:11.024Z</time>
      </trkpt>
      <trkpt lat="45.33595" lon="4.627">
        <ele>621.9</ele>
        <time>2022-05-04T10:10:35.907Z</time>
      </trkpt>
      <trkpt lat="45.33573" lon="4.62697">
        <ele>622.3</ele>
        <time>2022-05-04T10:10:59.705Z</time>
      </trkpt>
      <trkpt lat="45.3355" lon="4.62687">
        <ele>617.39</ele>
        <time>2022-05-04T10:11:24.799Z</time>
      </trkpt>
      <trkpt lat="45.33528" lon="4.62692">
        <ele>613.12</ele>
        <time>2022-05-04T10:11:47.387Z</time>
      </trkpt>
      <trkpt lat="45.33506" lon="4.62701">
        <ele>608.37</ele>
        <time>2022-05-04T10:12:09.984Z</time>
      </trkpt>
      <trkpt lat="45.33483" lon="4.62708">
        <ele>610.26</ele>
        <time>2022-05-04T10:12:32.446Z</time>
      </trkpt>
      <trkpt lat="45.33461" lon="4.62715">
        <ele>610.8</ele>
        <time>2022-05-04T10:12:54.525Z</time>
      </trkpt>
      <trkpt lat="45.33439" lon="4.62725">
        <ele>607.05</ele>
        <time>2022-05-04T10:13:19.561Z</time>
      </trkpt>
      <trkpt lat="45.33417" lon="4.62735">
        <ele>608.99</ele>
        <time>2022-05-04T10:13:45.521Z</time>
      </trkpt>
      <trkpt lat="45.33395" lon="4.62745">
        <ele>600.55</ele>
        <time>2022-05-04T10:14:13.622Z</time>
      </trkpt>
      <trkpt lat="45.33373" lon="4.62738">
        <ele>593.4</ele>
        <time>2022-05-04T10:14:37.785Z</time>
      </trkpt>
      <trkpt lat="45.33355" lon="4.62719">
        <ele>589.17</ele>
        <time>2022-05-04T10:15:05.408Z</time>
      </trkpt>
      <trkpt lat="45.33341" lon="4.62691">
        <ele>587.92</ele>
        <time>2022-05-04T10:15:31.298Z</time>
      </trkpt>
      <trkpt lat="45.3332" lon="4.62679">
        <ele>588.68</ele>
        <time>2022-05-04T10:15:51.666Z</time>
      </trkpt>
      <trkpt lat="45.33297" lon="4.62671">
        <ele>591.18</ele>
        <time>2022-05-04T10:16:12.919Z</time>
      </trkpt>
      <trkpt lat="45.33274" lon="4.62669">
        <ele>589.77</ele>
        <time>2022-05-04T10:16:30.741Z</time>
      </trkpt>
      <trkpt lat="45.33251" lon="4.62667">
        <ele>592.61</ele>
        <time>2022-05-04T10:17:04.000Z</time>
      </trkpt>
      <trkpt lat="45.33229" lon="4.62659">
        <ele>594.64</ele>
        <time>2022-05-04T10:17:21.746Z</time>
      </trkpt>
      <trkpt lat="45.33207" lon="4.62653">
        <ele>590.44</ele>
        <time>2022-05-04T10:17:43.843Z</time>
      </trkpt>
      <trkpt lat="45.33182" lon="4.62647">
        <ele>590.55</ele>
        <time>2022-05-04T10:18:04.998Z</time>
      </trkpt>
      <trkpt lat="45.3316" lon="4.62639">
        <ele>589.37</ele>
        <time>2022-05-04T10:18:25.059Z</time>
      </trkpt>
      <trkpt lat="45.3314" lon="4.62624">
        <ele>593.48</ele>
        <time>2022-05-04T10:18:47.000Z</time>
      </trkpt>
      <trkpt lat="45.33126" lon="4.62599">
        <ele>591.24</ele>
        <time>2022-05-04T10:19:04.806Z</time>
      </trkpt>
      <trkpt lat="45.33118" lon="4.62568">
        <ele>585.29</ele>
        <time>2022-05-04T10:19:29.343Z</time>
      </trkpt>
      <trkpt lat="45.33096" lon="4.62577">
        <ele>577.18</ele>
        <time>2022-05-04T10:19:54.466Z</time>
      </trkpt>
      <trkpt lat="45.33072" lon="4.6258">
        <ele>579.21</ele>
        <time>2022-05-04T10:20:17.120Z</time>
      </trkpt>
      <trkpt lat="45.33054" lon="4.62562">
        <ele>583</ele>
        <time>2022-05-04T10:20:44.000Z</time>
      </trkpt>
      <trkpt lat="45.33038" lon="4.62536">
        <ele>580.97</ele>
        <time>2022-05-04T10:21:09.480Z</time>
      </trkpt>
      <trkpt lat="45.33024" lon="4.62511">
        <ele>579.14</ele>
        <time>2022-05-04T10:21:32.088Z</time>
      </trkpt>
      <trkpt lat="45.33013" lon="4.62482">
        <ele>587.79</ele>
        <time>2022-05-04T10:21:53.964Z</time>
      </trkpt>
      <trkpt lat="45.32994" lon="4.62461">
        <ele>586.1</ele>
        <time>2022-05-04T10:22:12.746Z</time>
      </trkpt>
      <trkpt lat="45.32971" lon="4.62458">
        <ele>592.02</ele>
        <time>2022-05-04T10:22:31.642Z</time>
      </trkpt>
      <trkpt lat="45.32949" lon="4.62455">
        <ele>588.09</ele>
        <time>2022-05-04T10:22:52.702Z</time>
      </trkpt>
      <trkpt lat="45.32925" lon="4.62452">
        <ele>590.63</ele>
        <time>2022-05-04T10:23:15.000Z</time>
      </trkpt>
      <trkpt lat="45.32903" lon="4.62448">
        <ele>591.64</ele>
        <time>2022-05-04T10:23:33.102Z</time>
      </trkpt>
      <trkpt lat="45.32881" lon="4.62438">
        <ele>593.11</ele>
        <time>2022-05-04T10:23:53.584Z</time>
      </trkpt>
      <trkpt lat="45.32861" lon="4.62422">
        <ele>593.76</ele>
        <time>2022-05-04T10:24:17.747Z</time>
      </trkpt>
      <trkpt lat="45.32842" lon="4.62403">
        <ele>593.92</ele>
        <time>2022-05-04T10:24:41.947Z</time>
      </trkpt>
      <trkpt lat="45.32824" lon="4.62382">
        <ele>604.43</ele>
        <time>2022-05-04T10:25:09.000Z</time>
      </trkpt>
      <trkpt lat="45.32813" lon="4.62353">
        <ele>596.88</ele>
        <time>2022-05-04T10:25:36.786Z</time>
      </trkpt>
      <trkpt lat="45.32791" lon="4.6234">
        <ele>597.17</ele>
        <time>2022-05-04T10:26:04.000Z</time>
      </trkpt>
      <trkpt lat="45.32771" lon="4.62324">
        <ele>596.85</ele>
        <time>2022-05-04T10:26:23.602Z</time>
      </trkpt>
      <trkpt lat="45.32752" lon="4.62307">
        <ele>596.25</ele>
        <time>2022-05-04T10:26:45.000Z</time>
      </trkpt>
      <trkpt lat="45.32738" lon="4.62281">
        <ele>593.9</ele>
        <time>2022-05-04T10:27:05.643Z</time>
      </trkpt>
      <trkpt lat="45.32729" lon="4.62251">
        <ele>589.8</ele>
        <time>2022-05-04T10:27:26.865Z</time>
      </trkpt>
      <trkpt lat="45.32716" lon="4.62225">
        <ele>593.97</ele>
        <time>2022-05-04T10:27:46.023Z</time>
      </trkpt>
      <trkpt lat="45.32695" lon="4.62211">
        <ele>595.06</ele>
        <time>2022-05-04T10:28:07.000Z</time>
      </trkpt>
      <trkpt lat="45.32674" lon="4.62224">
        <ele>587.61</ele>
        <time>2022-05-04T10:28:28.000Z</time>
      </trkpt>
      <trkpt lat="45.32652" lon="4.62232">
        <ele>594.59</ele>
        <time>2022-05-04T10:28:54.821Z</time>
      </trkpt>
      <trkpt lat="45.32629" lon="4.62234">
        <ele>596.91</ele>
        <time>2022-05-04T10:29:25.000Z</time>
      </trkpt>
      <trkpt lat="45.32606" lon="4.62229">
        <ele>600.34</ele>
        <time>2022-05-04T10:29:53.000Z</time>
      </trkpt>
      <trkpt lat="45.32585" lon="4.6222">
        <ele>600.36</ele>
        <time>2022-05-04T10:30:24.000Z</time>
      </trkpt>
      <trkpt lat="45.32564" lon="4.62206">
        <ele>601.15</ele>
        <time>2022-05-04T10:30:54.844Z</time>
      </trkpt>
      <trkpt lat="45.32549" lon="4.62182">
        <ele>607.21</ele>
        <time>2022-05-04T10:31:22.000Z</time>
      </trkpt>
      <trkpt lat="45.32539" lon="4.62153">
        <ele>608.41</ele>
        <time>2022-05-04T10:31:50.807Z</time>
      </trkpt>
      <trkpt lat="45.32528" lon="4.62125">
        <ele>610.46</ele>
        <time>2022-05-04T10:32:19.000Z</time>
      </trkpt>
      <trkpt lat="45.32515" lon="4.62097">
        <ele>590.92</ele>
        <time>2022-05-04T10:32:57.000Z</time>
      </trkpt>
      <trkpt lat="45.32501" lon="4.6207">
        <ele>590.92</ele>
        <time>2022-05-04T10:33:27.879Z</time>
      </trkpt>
      <trkpt lat="45.32484" lon="4.62047">
        <ele>610.8</ele>
        <time>2022-05-04T10:33:57.000Z</time>
      </trkpt>
      <trkpt lat="45.32472" lon="4.6202">
        <ele>616.37</ele>
        <time>2022-05-04T10:34:21.584Z</time>
      </trkpt>
      <trkpt lat="45.32459" lon="4.61993">
        <ele>619.5</ele>
        <time>2022-05-04T10:34:48.580Z</time>
      </trkpt>
      <trkpt lat="45.32476" lon="4.61971">
        <ele>624.84</ele>
        <time>2022-05-04T10:37:11.906Z</time>
      </trkpt>
      <trkpt lat="45.32497" lon="4.61958">
        <ele>627.04</ele>
        <time>2022-05-04T10:37:36.876Z</time>
      </trkpt>
      <trkpt lat="45.32517" lon="4.61941">
        <ele>628.97</ele>
        <time>2022-05-04T10:38:05.537Z</time>
      </trkpt>
      <trkpt lat="45.32536" lon="4.61924">
        <ele>631.99</ele>
        <time>2022-05-04T10:38:32.940Z</time>
      </trkpt>
      <trkpt lat="45.32555" lon="4.61907">
        <ele>633.11</ele>
        <time>2022-05-04T10:38:58.805Z</time>
      </trkpt>
      <trkpt lat="45.32572" lon="4.61884">
        <ele>637.31</ele>
        <time>2022-05-04T10:39:35.659Z</time>
      </trkpt>
      <trkpt lat="45.32552" lon="4.61864">
        <ele>639.95</ele>
        <time>2022-05-04T10:40:19.000Z</time>
      </trkpt>
      <trkpt lat="45.32531" lon="4.61854">
        <ele>635.42</ele>
        <time>2022-05-04T10:40:49.602Z</time>
      </trkpt>
      <trkpt lat="45.3251" lon="4.61838">
        <ele>630.53</ele>
        <time>2022-05-04T10:41:22.740Z</time>
      </trkpt>
      <trkpt lat="45.32491" lon="4.6182">
        <ele>627.3</ele>
        <time>2022-05-04T10:41:49.805Z</time>
      </trkpt>
      <trkpt lat="45.3247" lon="4.61804">
        <ele>625.95</ele>
        <time>2022-05-04T10:42:17.619Z</time>
      </trkpt>
      <trkpt lat="45.32451" lon="4.61784">
        <ele>623.29</ele>
        <time>2022-05-04T10:42:45.540Z</time>
      </trkpt>
      <trkpt lat="45.32433" lon="4.61765">
        <ele>620.53</ele>
        <time>2022-05-04T10:43:10.780Z</time>
      </trkpt>
      <trkpt lat="45.32415" lon="4.61743">
        <ele>617.33</ele>
        <time>2022-05-04T10:43:40.785Z</time>
      </trkpt>
      <trkpt lat="45.324" lon="4.6172">
        <ele>615.06</ele>
        <time>2022-05-04T10:44:11.560Z</time>
      </trkpt>
      <trkpt lat="45.32383" lon="4.61698">
        <ele>611.14</ele>
        <time>2022-05-04T10:44:42.000Z</time>
      </trkpt>
      <trkpt lat="45.32364" lon="4.61679">
        <ele>607.67</ele>
        <time>2022-05-04T10:45:12.702Z</time>
      </trkpt>
      <trkpt lat="45.32346" lon="4.61659">
        <ele>605.46</ele>
        <time>2022-05-04T10:45:42.000Z</time>
      </trkpt>
      <trkpt lat="45.32327" lon="4.6164">
        <ele>605.02</ele>
        <time>2022-05-04T10:46:11.461Z</time>
      </trkpt>
      <trkpt lat="45.32316" lon="4.61612">
        <ele>604.52</ele>
        <time>2022-05-04T10:46:49.565Z</time>
      </trkpt>
      <trkpt lat="45.32296" lon="4.61593">
        <ele>599.8</ele>
        <time>2022-05-04T10:47:24.845Z</time>
      </trkpt>
      <trkpt lat="45.32286" lon="4.61564">
        <ele>588.9</ele>
        <time>2022-05-04T10:47:57.800Z</time>
      </trkpt>
      <trkpt lat="45.32261" lon="4.61569">
        <ele>588</ele>
        <time>2022-05-04T10:50:21.246Z</time>
      </trkpt>
      <trkpt lat="45.3224" lon="4.61557">
        <ele>588.8</ele>
        <time>2022-05-04T10:50:56.000Z</time>
      </trkpt>
      <trkpt lat="45.32229" lon="4.61528">
        <ele>588.5</ele>
        <time>2022-05-04T10:51:30.844Z</time>
      </trkpt>
      <trkpt lat="45.32221" lon="4.61498">
        <ele>589.2</ele>
        <time>2022-05-04T10:51:55.863Z</time>
      </trkpt>
      <trkpt lat="45.32208" lon="4.61471">
        <ele>591.59</ele>
        <time>2022-05-04T10:52:39.000Z</time>
      </trkpt>
      <trkpt lat="45.32223" lon="4.61446">
        <ele>591.6</ele>
        <time>2022-05-04T10:53:11.783Z</time>
      </trkpt>
      <trkpt lat="45.32235" lon="4.61452">
        <ele>590.9</ele>
        <time>2022-05-04T10:56:04.000Z</time>
      </trkpt>
    </trkseg>
  </trk>
</gpx>